Time;durP1;ratioP1;P1;durP2;ratioP2;P2;SDS_P1;SDS_P2;PMS_P1;PMS_P2;Temp;Humidity;BMP_temperature;BMP_pressure;BME280_temperature;BME280_humidity;BME280_pressure;Samples;Min_cycle;Max_cycle;Signal;HPM_P1;HPM_P2
2022/01/05 00:01:46;;;;;;;11.98;7.78;;;;;;;;;;5039123;28;20037;-73
2022/01/05 00:04:12;;;;;;;11.73;7.53;;;;;;;;;;5042247;28;20058;-73
2022/01/05 00:06:38;;;;;;;7.40;4.78;;;;;;;;;;5025772;28;20029;-74
2022/01/05 00:09:04;;;;;;;5.72;3.80;;;;;;;;;;5023915;28;20508;-72
2022/01/05 00:11:30;;;;;;;5.30;3.58;;;;;;;;;;5028639;28;20255;-73
2022/01/05 00:13:58;;;;;;;7.63;4.47;;;;;;;;;;5027444;28;20021;-73
2022/01/05 00:16:24;;;;;;;5.03;2.90;;;;;;;;;;5024088;28;20029;-73
2022/01/05 00:18:50;;;;;;;4.43;2.90;;;;;;;;;;5023832;28;20021;-73
2022/01/05 00:21:16;;;;;;;8.20;3.03;;;;;;;;;;5034422;28;20052;-73
2022/01/05 00:23:43;;;;;;;5.43;2.97;;;;;;;;;;5038024;28;20026;-73
2022/01/05 00:26:09;;;;;;;3.58;2.80;;;;;;;;;;5024353;28;20358;-73
2022/01/05 00:28:36;;;;;;;4.38;2.63;;;;;;;;;;5023828;28;20032;-74
2022/01/05 00:31:02;;;;;;;3.72;2.83;;;;;;;;;;5032062;28;20029;-73
2022/01/05 00:33:28;;;;;;;5.82;3.22;;;;;;;;;;5032722;28;20029;-73
2022/01/05 00:35:54;;;;;;;5.47;2.97;;;;;;;;;;5024195;28;20100;-73
2022/01/05 00:38:21;;;;;;;2.80;2.08;;;;;;;;;;5036447;28;20606;-74
2022/01/05 00:40:47;;;;;;;4.28;2.67;;;;;;;;;;5045497;28;20124;-73
2022/01/05 00:43:13;;;;;;;5.40;2.92;;;;;;;;;;5042759;28;20021;-74
2022/01/05 00:45:39;;;;;;;5.20;2.80;;;;;;;;;;5027967;28;20045;-73
2022/01/05 00:48:05;;;;;;;5.50;3.10;;;;;;;;;;5041176;28;20067;-73
2022/01/05 00:50:31;;;;;;;4.90;2.70;;;;;;;;;;5061295;28;20079;-73
2022/01/05 00:53:00;;;;;;;5.72;2.60;;;;;;;;;;5027574;28;20414;-74
2022/01/05 00:55:27;;;;;;;4.32;2.83;;;;;;;;;;5027673;28;20018;-73
2022/01/05 00:57:54;;;;;;;4.30;3.03;;;;;;;;;;5033679;28;20029;-73
2022/01/05 01:00:20;;;;;;;4.13;3.22;;;;;;;;;;5055461;28;20032;-73
2022/01/05 01:02:46;;;;;;;4.10;2.70;;;;;;;;;;5067175;28;20013;-73
2022/01/05 01:05:14;;;;;;;4.78;3.22;;;;;;;;;;5067045;28;20031;-73
2022/01/05 01:07:40;;;;;;;6.28;4.03;;;;;;;;;;5060127;28;20021;-73
2022/01/05 01:10:07;;;;;;;5.40;3.40;;;;;;;;;;5034451;28;20055;-74
2022/01/05 01:12:34;;;;;;;5.03;3.50;;;;;;;;;;5033189;28;20033;-74
2022/01/05 01:15:01;;;;;;;5.13;2.97;;;;;;;;;;5030350;28;20028;-72
2022/01/05 01:17:27;;;;;;;4.60;3.25;;;;;;;;;;5046958;28;20028;-74
2022/01/05 01:19:53;;;;;;;6.97;3.78;;;;;;;;;;5049702;28;20027;-74
2022/01/05 01:22:19;;;;;;;5.10;3.53;;;;;;;;;;5049607;28;20063;-74
2022/01/05 01:24:46;;;;;;;4.22;3.25;;;;;;;;;;5049341;28;20021;-74
2022/01/05 01:27:12;;;;;;;8.38;3.45;;;;;;;;;;5049055;28;20107;-73
2022/01/05 01:29:38;;;;;;;6.20;3.15;;;;;;;;;;5048305;28;20458;-74
2022/01/05 01:32:04;;;;;;;6.53;3.58;;;;;;;;;;5049546;28;20037;-74
2022/01/05 01:34:31;;;;;;;5.22;3.90;;;;;;;;;;5049151;28;20017;-74
2022/01/05 01:36:57;;;;;;;6.40;4.47;;;;;;;;;;5038707;28;20021;-74
2022/01/05 01:39:23;;;;;;;4.40;2.80;;;;;;;;;;5041634;28;20026;-73
2022/01/05 01:41:49;;;;;;;4.43;3.60;;;;;;;;;;5029477;28;20072;-73
2022/01/05 01:44:16;;;;;;;7.65;3.95;;;;;;;;;;5029514;28;20063;-74
2022/01/05 01:46:43;;;;;;;7.88;5.22;;;;;;;;;;5023869;28;20095;-74
2022/01/05 01:49:09;;;;;;;7.68;4.72;;;;;;;;;;5049067;28;20027;-74
2022/01/05 01:51:35;;;;;;;7.38;4.72;;;;;;;;;;5047708;28;20041;-73
2022/01/05 01:54:03;;;;;;;6.28;4.05;;;;;;;;;;5045358;28;20025;-73
2022/01/05 01:56:32;;;;;;;5.93;3.25;;;;;;;;;;5032353;28;20047;-74
2022/01/05 01:58:58;;;;;;;5.95;3.45;;;;;;;;;;5069281;28;20508;-74
2022/01/05 02:01:24;;;;;;;7.18;4.40;;;;;;;;;;5064906;28;20040;-74
2022/01/05 02:03:50;;;;;;;7.05;4.20;;;;;;;;;;5029684;28;20504;-74
2022/01/05 02:06:17;;;;;;;5.57;2.78;;;;;;;;;;5049281;28;20451;-74
2022/01/05 02:08:43;;;;;;;3.25;2.00;;;;;;;;;;5049248;28;20029;-74
2022/01/05 02:11:10;;;;;;;2.97;2.15;;;;;;;;;;5047999;28;20052;-74
2022/01/05 02:13:36;;;;;;;5.20;2.90;;;;;;;;;;5027258;28;20351;-74
2022/01/05 02:16:03;;;;;;;5.55;3.53;;;;;;;;;;5028859;28;20018;-74
2022/01/05 02:21:02;;;;;;;5.60;3.30;;;;;;;;;;5043038;28;20021;-73
2022/01/05 02:23:28;;;;;;;4.65;3.25;;;;;;;;;;5029596;28;20052;-74
2022/01/05 02:25:55;;;;;;;4.65;2.42;;;;;;;;;;5041438;28;20529;-74
2022/01/05 02:28:21;;;;;;;3.50;2.15;;;;;;;;;;5067321;28;20024;-74
2022/01/05 02:30:51;;;;;;;2.40;1.50;;;;;;;;;;5068450;28;20024;-74
2022/01/05 02:33:17;;;;;;;2.90;1.90;;;;;;;;;;5049753;28;20527;-74
2022/01/05 02:35:43;;;;;;;2.95;1.90;;;;;;;;;;5048511;28;20025;-73
2022/01/05 02:38:09;;;;;;;3.00;1.85;;;;;;;;;;5068451;28;20035;-74
2022/01/05 02:40:35;;;;;;;2.70;1.83;;;;;;;;;;5068664;28;20530;-73
2022/01/05 02:43:01;;;;;;;2.95;1.80;;;;;;;;;;5052061;28;20332;-72
2022/01/05 02:45:28;;;;;;;4.47;2.25;;;;;;;;;;5048202;28;20024;-74
2022/01/05 02:47:55;;;;;;;2.55;1.90;;;;;;;;;;5046975;28;20020;-74
2022/01/05 02:50:22;;;;;;;2.28;1.48;;;;;;;;;;5048620;28;20055;-74
2022/01/05 02:52:48;;;;;;;3.58;1.42;;;;;;;;;;5017277;28;20619;-73
2022/01/05 02:55:14;;;;;;;2.13;1.48;;;;;;;;;;5028263;28;20092;-73
2022/01/05 02:57:41;;;;;;;3.95;2.67;;;;;;;;;;5041602;28;20040;-74
2022/01/05 03:00:08;;;;;;;2.30;1.65;;;;;;;;;;5048036;28;20017;-74
2022/01/05 03:02:34;;;;;;;2.90;2.00;;;;;;;;;;5029011;28;20099;-74
2022/01/05 03:05:01;;;;;;;3.13;1.80;;;;;;;;;;5019525;28;20433;-74
2022/01/05 03:07:27;;;;;;;3.72;2.10;;;;;;;;;;5041145;28;20041;-75
2022/01/05 03:09:53;;;;;;;4.07;2.38;;;;;;;;;;5059119;28;20020;-74
2022/01/05 03:12:20;;;;;;;3.83;1.67;;;;;;;;;;5039144;28;20136;-73
2022/01/05 03:14:46;;;;;;;2.08;1.05;;;;;;;;;;5025453;28;20029;-73
2022/01/05 03:17:12;;;;;;;3.30;1.17;;;;;;;;;;5023772;28;20545;-74
2022/01/05 03:19:38;;;;;;;2.13;1.27;;;;;;;;;;5021377;28;20104;-74
2022/01/05 03:22:04;;;;;;;1.80;1.10;;;;;;;;;;5024936;28;20132;-73
2022/01/05 03:24:30;;;;;;;3.35;1.40;;;;;;;;;;5051814;28;20091;-74
2022/01/05 03:26:57;;;;;;;1.95;1.33;;;;;;;;;;5062536;28;20401;-74
2022/01/05 03:29:23;;;;;;;2.28;1.33;;;;;;;;;;5045244;28;20024;-74
2022/01/05 03:31:49;;;;;;;2.38;1.45;;;;;;;;;;5062052;28;20044;-74
2022/01/05 03:34:19;;;;;;;1.67;1.30;;;;;;;;;;5041365;28;20052;-73
2022/01/05 03:36:45;;;;;;;2.40;1.00;;;;;;;;;;5022589;28;20095;-74
2022/01/05 03:39:12;;;;;;;1.70;1.10;;;;;;;;;;5022385;28;20021;-73
2022/01/05 03:41:38;;;;;;;2.00;1.23;;;;;;;;;;5043016;28;20548;-74
2022/01/05 03:44:04;;;;;;;1.73;1.20;;;;;;;;;;5041302;28;20033;-74
2022/01/05 03:46:30;;;;;;;1.83;0.95;;;;;;;;;;5040642;28;20033;-73
2022/01/05 03:48:57;;;;;;;1.80;1.10;;;;;;;;;;5042182;28;20021;-74
2022/01/05 03:51:23;;;;;;;2.65;1.20;;;;;;;;;;5042249;28;20075;-73
2022/01/05 03:53:49;;;;;;;3.85;1.20;;;;;;;;;;5034581;28;20029;-73
2022/01/05 03:56:15;;;;;;;2.42;0.90;;;;;;;;;;5022099;28;20036;-73
2022/01/05 03:58:41;;;;;;;1.63;1.05;;;;;;;;;;5020505;28;20022;-74
2022/01/05 04:01:07;;;;;;;1.92;1.33;;;;;;;;;;5022197;28;20025;-73
2022/01/05 04:03:34;;;;;;;2.85;1.70;;;;;;;;;;5014780;28;20037;-74
2022/01/05 04:06:00;;;;;;;2.60;1.98;;;;;;;;;;5019923;28;20037;-74
2022/01/05 04:08:26;;;;;;;2.90;1.63;;;;;;;;;;5018611;28;20034;-74
2022/01/05 04:10:52;;;;;;;2.90;1.40;;;;;;;;;;5037803;28;20090;-73
2022/01/05 04:13:19;;;;;;;3.35;1.08;;;;;;;;;;5039314;28;20060;-74
2022/01/05 04:15:45;;;;;;;3.08;0.80;;;;;;;;;;5038945;28;20427;-74
2022/01/05 04:18:11;;;;;;;1.98;0.90;;;;;;;;;;5057501;28;20031;-74
2022/01/05 04:20:37;;;;;;;1.67;1.08;;;;;;;;;;5025067;28;20021;-73
2022/01/05 04:23:03;;;;;;;1.63;0.90;;;;;;;;;;5019184;28;20101;-73
2022/01/05 04:25:31;;;;;;;1.90;1.08;;;;;;;;;;5019746;28;20029;-74
2022/01/05 04:27:57;;;;;;;1.60;1.05;;;;;;;;;;5001814;28;20474;-73
2022/01/05 04:30:23;;;;;;;1.83;0.93;;;;;;;;;;5037324;28;20477;-73
2022/01/05 04:32:49;;;;;;;1.75;1.20;;;;;;;;;;5058748;28;20194;-73
2022/01/05 04:35:16;;;;;;;2.00;1.05;;;;;;;;;;5059039;28;20040;-73
2022/01/05 04:37:42;;;;;;;1.40;0.95;;;;;;;;;;5059477;28;20024;-74
2022/01/05 04:40:09;;;;;;;1.80;1.20;;;;;;;;;;5046230;28;20033;-74
2022/01/05 04:42:35;;;;;;;2.88;1.92;;;;;;;;;;5037892;28;20060;-74
2022/01/05 04:45:02;;;;;;;2.95;2.28;;;;;;;;;;5039562;28;20052;-74
2022/01/05 04:47:28;;;;;;;4.13;2.00;;;;;;;;;;5038913;28;20029;-74
2022/01/05 04:49:54;;;;;;;3.15;2.42;;;;;;;;;;5029318;28;20498;-73
2022/01/05 04:52:20;;;;;;;4.20;2.90;;;;;;;;;;5017095;28;20465;-74
2022/01/05 04:54:46;;;;;;;2.08;1.30;;;;;;;;;;5019538;28;20026;-73
2022/01/05 04:57:14;;;;;;;1.15;0.90;;;;;;;;;;5018941;28;20025;-74
2022/01/05 04:59:40;;;;;;;3.35;1.30;;;;;;;;;;5038863;28;20025;-73
2022/01/05 05:02:06;;;;;;;1.50;1.10;;;;;;;;;;5038789;28;20322;-74
2022/01/05 05:04:33;;;;;;;2.08;1.33;;;;;;;;;;5037751;28;20063;-73
2022/01/05 05:06:59;;;;;;;1.33;0.90;;;;;;;;;;5038172;28;20737;-74
2022/01/05 05:09:25;;;;;;;2.80;1.20;;;;;;;;;;5039114;28;20495;-73
2022/01/05 05:11:52;;;;;;;2.13;1.20;;;;;;;;;;5020530;28;20519;-73
2022/01/05 05:14:18;;;;;;;3.45;1.30;;;;;;;;;;5018034;28;20038;-74
2022/01/05 05:16:44;;;;;;;1.55;0.98;;;;;;;;;;5031784;28;20063;-74
2022/01/05 05:19:10;;;;;;;2.80;1.13;;;;;;;;;;5059226;28;20017;-74
2022/01/05 05:21:37;;;;;;;2.53;0.80;;;;;;;;;;5045421;28;20800;-74
2022/01/05 05:24:03;;;;;;;2.10;1.30;;;;;;;;;;5038259;28;20479;-73
2022/01/05 05:26:29;;;;;;;1.42;1.15;;;;;;;;;;5039187;28;20225;-74
2022/01/05 05:28:55;;;;;;;8.88;1.20;;;;;;;;;;5042608;28;20503;-73
2022/01/05 05:31:21;;;;;;;1.25;0.90;;;;;;;;;;5033085;28;20421;-73
2022/01/05 05:33:47;;;;;;;1.65;1.00;;;;;;;;;;5004808;28;20584;-73
2022/01/05 05:36:14;;;;;;;4.82;1.20;;;;;;;;;;5022270;28;20021;-73
2022/01/05 05:38:40;;;;;;;2.20;1.00;;;;;;;;;;5004492;28;20129;-74
2022/01/05 05:41:06;;;;;;;2.47;1.48;;;;;;;;;;5032807;28;20517;-74
2022/01/05 05:43:32;;;;;;;2.47;1.30;;;;;;;;;;5058390;28;20612;-74
2022/01/05 05:45:58;;;;;;;1.80;1.20;;;;;;;;;;5061881;28;20081;-73
2022/01/05 05:48:24;;;;;;;1.75;1.20;;;;;;;;;;5061729;28;20028;-74
2022/01/05 05:50:51;;;;;;;1.48;0.80;;;;;;;;;;5054440;28;20024;-74
2022/01/05 05:53:17;;;;;;;1.73;1.00;;;;;;;;;;5039960;28;20037;-74
2022/01/05 05:55:43;;;;;;;1.75;1.02;;;;;;;;;;5042103;28;20025;-73
2022/01/05 05:58:09;;;;;;;1.67;1.08;;;;;;;;;;5023915;28;20029;-73
2022/01/05 06:00:35;;;;;;;2.30;0.90;;;;;;;;;;5039182;28;20025;-74
2022/01/05 06:03:02;;;;;;;1.35;1.00;;;;;;;;;;5020198;28;20032;-74
2022/01/05 06:05:28;;;;;;;1.92;1.00;;;;;;;;;;5021794;28;20028;-74
2022/01/05 06:07:54;;;;;;;3.20;1.10;;;;;;;;;;5038166;28;20033;-74
2022/01/05 06:10:20;;;;;;;3.22;1.30;;;;;;;;;;5031992;28;20017;-74
2022/01/05 06:12:47;;;;;;;5.13;1.20;;;;;;;;;;5045199;28;20860;-74
2022/01/05 06:15:13;;;;;;;2.08;1.10;;;;;;;;;;5023563;28;20025;-74
2022/01/05 06:17:39;;;;;;;2.58;1.05;;;;;;;;;;5035673;28;20041;-74
2022/01/05 06:20:07;;;;;;;1.30;1.00;;;;;;;;;;5041774;28;20036;-73
2022/01/05 06:22:33;;;;;;;2.97;1.23;;;;;;;;;;5043154;28;20037;-74
2022/01/05 06:24:59;;;;;;;1.75;1.20;;;;;;;;;;5062386;28;20083;-74
2022/01/05 06:27:25;;;;;;;1.60;1.10;;;;;;;;;;5053132;28;20018;-73
2022/01/05 06:29:52;;;;;;;1.90;1.10;;;;;;;;;;5043584;28;20517;-74
2022/01/05 06:32:18;;;;;;;1.85;1.38;;;;;;;;;;5042785;28;20037;-74
2022/01/05 06:34:44;;;;;;;1.45;1.00;;;;;;;;;;5024232;28;20021;-74
2022/01/05 06:37:10;;;;;;;1.48;1.08;;;;;;;;;;5043489;28;20025;-74
2022/01/05 06:39:37;;;;;;;1.90;1.00;;;;;;;;;;5047674;28;20040;-74
2022/01/05 06:42:03;;;;;;;2.85;1.27;;;;;;;;;;5022988;28;20033;-74
2022/01/05 06:44:29;;;;;;;1.80;0.90;;;;;;;;;;5022919;28;20040;-73
2022/01/05 06:46:55;;;;;;;2.22;1.02;;;;;;;;;;5004466;28;20033;-74
2022/01/05 06:49:23;;;;;;;2.00;1.02;;;;;;;;;;5022206;28;20029;-75
2022/01/05 06:51:50;;;;;;;2.33;1.15;;;;;;;;;;5023237;28;20474;-73
2022/01/05 06:54:17;;;;;;;6.60;1.20;;;;;;;;;;5016984;28;20121;-75
2022/01/05 06:56:44;;;;;;;0.98;0.82;;;;;;;;;;5015119;28;20449;-75
2022/01/05 06:59:10;;;;;;;2.00;0.90;;;;;;;;;;5035751;28;20029;-73
2022/01/05 07:01:37;;;;;;;2.45;1.17;;;;;;;;;;5030942;28;20101;-78
2022/01/05 07:04:05;;;;;;;6.65;1.20;;;;;;;;;;5004541;28;20096;-74
2022/01/05 07:06:31;;;;;;;10.57;1.65;;;;;;;;;;5006964;28;20068;-75
2022/01/05 07:08:57;;;;;;;7.30;1.50;;;;;;;;;;5022473;28;20017;-77
2022/01/05 07:11:23;;;;;;;9.63;1.70;;;;;;;;;;5030453;28;20103;-76
2022/01/05 07:13:49;;;;;;;6.18;1.40;;;;;;;;;;5032782;28;20029;-77
2022/01/05 07:16:17;;;;;;;2.47;1.08;;;;;;;;;;5025016;28;20474;-76
2022/01/05 07:18:43;;;;;;;3.88;1.10;;;;;;;;;;5043742;28;20032;-75
2022/01/05 07:21:09;;;;;;;1.98;1.25;;;;;;;;;;5039992;28;20029;-75
2022/01/05 07:23:35;;;;;;;2.10;1.10;;;;;;;;;;5045133;28;20105;-74
2022/01/05 07:26:01;;;;;;;4.15;1.73;;;;;;;;;;5028176;28;20688;-75
2022/01/05 07:28:28;;;;;;;2.65;1.52;;;;;;;;;;5034589;28;20032;-75
2022/01/05 07:30:54;;;;;;;2.10;1.15;;;;;;;;;;5031829;28;20025;-74
2022/01/05 07:33:20;;;;;;;2.50;1.20;;;;;;;;;;5022147;28;20099;-74
2022/01/05 07:35:46;;;;;;;1.70;1.25;;;;;;;;;;5035002;28;20025;-74
2022/01/05 07:38:13;;;;;;;2.38;1.17;;;;;;;;;;5021411;28;20775;-76
2022/01/05 07:40:39;;;;;;;5.05;2.00;;;;;;;;;;5015527;28;20029;-76
2022/01/05 07:43:06;;;;;;;3.97;1.70;;;;;;;;;;5023445;28;20033;-74
2022/01/05 07:45:35;;;;;;;4.30;2.05;;;;;;;;;;5022677;28;20367;-77
2022/01/05 07:48:01;;;;;;;5.00;1.98;;;;;;;;;;5040881;28;20025;-77
2022/01/05 07:50:28;;;;;;;3.63;1.80;;;;;;;;;;5051488;28;20032;-76
2022/01/05 07:52:55;;;;;;;7.05;2.80;;;;;;;;;;5037941;28;20086;-78
2022/01/05 07:55:21;;;;;;;8.50;2.92;;;;;;;;;;5042135;28;20017;-75
2022/01/05 07:57:47;;;;;;;7.80;3.75;;;;;;;;;;5038514;28;20037;-74
2022/01/05 08:00:14;;;;;;;12.23;4.28;;;;;;;;;;5021530;28;20026;-75
2022/01/05 08:02:40;;;;;;;8.82;4.43;;;;;;;;;;5022055;28;20520;-75
2022/01/05 08:05:07;;;;;;;13.07;4.18;;;;;;;;;;5027950;28;20025;-75
2022/01/05 08:07:33;;;;;;;9.35;4.65;;;;;;;;;;5041525;28;20211;-76
2022/01/05 08:09:59;;;;;;;9.98;4.40;;;;;;;;;;5044027;28;20091;-74
2022/01/05 08:12:25;;;;;;;8.95;4.95;;;;;;;;;;5033606;28;20604;-76
2022/01/05 08:14:52;;;;;;;6.88;4.10;;;;;;;;;;5035272;28;20040;-77
2022/01/05 08:17:18;;;;;;;10.05;4.05;;;;;;;;;;5041204;28;20052;-78
2022/01/05 08:19:45;;;;;;;10.80;4.13;;;;;;;;;;5039643;28;20107;-78
2022/01/05 08:22:11;;;;;;;15.82;6.55;;;;;;;;;;5036444;28;20037;-77
2022/01/05 08:24:38;;;;;;;8.45;4.10;;;;;;;;;;5051862;28;20164;-74
2022/01/05 08:27:04;;;;;;;8.57;4.15;;;;;;;;;;5060667;28;20740;-74
2022/01/05 08:29:30;;;;;;;6.28;4.05;;;;;;;;;;5060151;28;20105;-74
2022/01/05 08:31:58;;;;;;;6.00;4.20;;;;;;;;;;5049044;28;20025;-74
2022/01/05 08:34:24;;;;;;;6.65;4.15;;;;;;;;;;5038776;28;20036;-74
2022/01/05 08:36:50;;;;;;;10.93;4.13;;;;;;;;;;5039756;28;20025;-74
2022/01/05 08:39:17;;;;;;;18.67;8.10;;;;;;;;;;5027349;28;20029;-74
2022/01/05 08:41:44;;;;;;;14.65;6.63;;;;;;;;;;5038873;28;20416;-74
2022/01/05 08:44:11;;;;;;;12.65;5.65;;;;;;;;;;5021461;28;20036;-74
2022/01/05 08:46:37;;;;;;;11.65;6.15;;;;;;;;;;5023927;28;20509;-71
2022/01/05 08:49:03;;;;;;;9.75;6.88;;;;;;;;;;5020751;28;20029;-71
2022/01/05 08:51:29;;;;;;;10.90;7.57;;;;;;;;;;5025547;28;20022;-71
2022/01/05 08:53:56;;;;;;;22.15;8.95;;;;;;;;;;5021998;28;20036;-71
2022/01/05 08:56:24;;;;;;;15.85;11.23;;;;;;;;;;5023970;28;20021;-75
2022/01/05 08:58:50;;;;;;;18.65;13.00;;;;;;;;;;5032823;28;20029;-77
2022/01/05 09:01:16;;;;;;;20.10;14.02;;;;;;;;;;5038458;28;20075;-73
2022/01/05 09:03:43;;;;;;;20.35;12.82;;;;;;;;;;5038254;28;20037;-75
2022/01/05 09:06:09;;;;;;;15.55;11.30;;;;;;;;;;5043844;28;20021;-75
2022/01/05 09:08:37;;;;;;;17.42;10.32;;;;;;;;;;5034132;28;20028;-74
2022/01/05 09:11:03;;;;;;;11.82;8.20;;;;;;;;;;5019044;28;20029;-74
2022/01/05 09:13:30;;;;;;;9.95;6.70;;;;;;;;;;5036878;28;20102;-74
2022/01/05 09:15:56;;;;;;;8.35;5.38;;;;;;;;;;5036380;28;20028;-75
2022/01/05 09:18:23;;;;;;;4.32;3.50;;;;;;;;;;5037066;28;20021;-75
2022/01/05 09:20:49;;;;;;;8.40;4.50;;;;;;;;;;5030351;28;20017;-74
2022/01/05 09:23:16;;;;;;;18.88;16.88;;;;;;;;;;5037271;28;20087;-74
2022/01/05 09:25:43;;;;;;;11.93;10.63;;;;;;;;;;5032416;28;20502;-75
2022/01/05 09:28:09;;;;;;;15.15;12.13;;;;;;;;;;5036310;28;20035;-75
2022/01/05 09:30:36;;;;;;;15.68;11.85;;;;;;;;;;5023266;28;20111;-73
2022/01/05 09:33:02;;;;;;;36.15;29.65;;;;;;;;;;5042508;28;20048;-72
2022/01/05 09:35:28;;;;;;;49.75;38.88;;;;;;;;;;5036874;28;20846;-72
2022/01/05 09:43:08;;;;;;;59.97;48.10;;;;;;;;;;5038621;28;20528;-77
2022/01/05 09:45:35;;;;;;;106.75;72.15;;;;;;;;;;5032145;28;20394;-77
2022/01/05 09:48:08;;;;;;;35.00;25.38;;;;;;;;;;5042982;28;20039;-76
2022/01/05 09:50:35;;;;;;;22.02;16.08;;;;;;;;;;5043458;28;20168;-72
2022/01/05 09:53:01;;;;;;;35.65;31.60;;;;;;;;;;5015279;28;20041;-76
2022/01/05 09:55:28;;;;;;;32.97;27.13;;;;;;;;;;5032226;28;20031;-76
2022/01/05 09:57:55;;;;;;;25.92;21.75;;;;;;;;;;5033262;28;20026;-74
2022/01/05 10:00:21;;;;;;;14.45;10.05;;;;;;;;;;5029175;28;20100;-72
2022/01/05 10:02:49;;;;;;;24.73;13.65;;;;;;;;;;5037703;28;20029;-77
2022/01/05 10:05:16;;;;;;;25.88;18.50;;;;;;;;;;5036080;28;20028;-73
2022/01/05 10:07:42;;;;;;;21.35;14.18;;;;;;;;;;5055129;28;20101;-72
2022/01/05 10:10:09;;;;;;;20.42;13.05;;;;;;;;;;5042700;28;20060;-74
2022/01/05 10:12:35;;;;;;;9.00;5.93;;;;;;;;;;5017155;28;20075;-76
2022/01/05 10:15:02;;;;;;;12.32;6.50;;;;;;;;;;5039725;28;20030;-77
2022/01/05 10:17:30;;;;;;;15.10;7.65;;;;;;;;;;5032432;28;20029;-75
2022/01/05 10:20:00;;;;;;;8.55;4.97;;;;;;;;;;5043602;28;20040;-76
2022/01/05 10:22:40;;;;;;;13.63;5.95;;;;;;;;;;5027591;28;20418;-76
2022/01/05 10:25:15;;;;;;;8.80;5.10;;;;;;;;;;5012663;28;20037;-76
2022/01/05 10:27:42;;;;;;;8.20;4.55;;;;;;;;;;5037281;28;20028;-78
2022/01/05 10:30:11;;;;;;;11.85;4.00;;;;;;;;;;5023617;28;20028;-88
2022/01/05 10:32:38;;;;;;;6.00;3.60;;;;;;;;;;5009040;28;20051;-81
2022/01/05 10:35:12;;;;;;;6.72;2.72;;;;;;;;;;5018202;28;20546;-79
2022/01/05 10:37:40;;;;;;;6.85;2.92;;;;;;;;;;5013306;28;20021;-81
2022/01/05 10:40:14;;;;;;;6.82;2.80;;;;;;;;;;5034992;28;20026;-77
2022/01/05 10:42:44;;;;;;;3.90;2.78;;;;;;;;;;5028960;28;20029;-81
2022/01/05 10:45:12;;;;;;;5.18;2.08;;;;;;;;;;5025129;28;20084;-78
2022/01/05 10:50:43;;;;;;;6.65;2.40;;;;;;;;;;5030596;28;20035;-82
2022/01/05 10:53:09;;;;;;;4.32;2.10;;;;;;;;;;5018604;28;20045;-77
2022/01/05 10:55:40;;;;;;;8.90;2.40;;;;;;;;;;5013114;28;20046;-79
2022/01/05 10:58:07;;;;;;;4.88;2.38;;;;;;;;;;5024163;28;20102;-78
2022/01/05 11:00:50;;;;;;;4.50;2.00;;;;;;;;;;5026403;28;20029;-75
2022/01/05 11:06:11;;;;;;;7.13;2.70;;;;;;;;;;5023905;28;20854;-82
2022/01/05 11:08:56;;;;;;;6.05;3.20;;;;;;;;;;5039141;28;20028;-87
2022/01/05 11:11:29;;;;;;;6.25;3.22;;;;;;;;;;5021776;28;20076;-79
2022/01/05 11:13:55;;;;;;;12.93;2.50;;;;;;;;;;5039381;28;20112;-77
2022/01/05 11:19:34;;;;;;;6.72;2.50;;;;;;;;;;5002429;28;20026;-75
2022/01/05 11:22:14;;;;;;;7.10;2.92;;;;;;;;;;5021653;28;20130;-80
2022/01/05 11:24:43;;;;;;;6.97;2.90;;;;;;;;;;5015636;28;20619;-79
2022/01/05 11:27:11;;;;;;;12.65;4.25;;;;;;;;;;5032311;28;20029;-80
2022/01/05 11:29:38;;;;;;;15.30;3.10;;;;;;;;;;5039295;28;20053;-83
2022/01/05 11:32:06;;;;;;;8.73;3.28;;;;;;;;;;5025729;28;20076;-83
2022/01/05 11:34:32;;;;;;;7.28;3.35;;;;;;;;;;5029083;28;20079;-76
2022/01/05 11:37:01;;;;;;;8.73;4.07;;;;;;;;;;5023281;28;20035;-80
2022/01/05 11:39:44;;;;;;;5.72;3.22;;;;;;;;;;5040206;28;20025;-79
2022/01/05 11:42:13;;;;;;;10.02;4.10;;;;;;;;;;5022561;28;20029;-81
2022/01/05 11:45:12;;;;;;;11.38;5.35;;;;;;;;;;5013052;28;20022;-83
2022/01/05 11:47:41;;;;;;;11.00;4.75;;;;;;;;;;5010171;28;20040;-81
2022/01/05 11:50:14;;;;;;;7.80;4.60;;;;;;;;;;5021072;28;20028;-81
2022/01/05 11:52:57;;;;;;;11.15;4.47;;;;;;;;;;5022487;28;20037;-79
2022/01/05 11:58:25;;;;;;;9.60;4.43;;;;;;;;;;4990279;28;20037;-83
2022/01/05 12:01:10;;;;;;;7.72;4.40;;;;;;;;;;5010971;28;20036;-78
2022/01/05 12:04:03;;;;;;;26.55;20.98;;;;;;;;;;5025359;28;20024;-77
2022/01/05 12:06:31;;;;;;;10.65;6.75;;;;;;;;;;5033673;28;20079;-76
2022/01/05 12:09:00;;;;;;;9.57;4.43;;;;;;;;;;5029133;28;20496;-77
2022/01/05 12:11:41;;;;;;;15.20;9.43;;;;;;;;;;5004700;28;20037;-75
2022/01/05 12:14:09;;;;;;;9.37;4.07;;;;;;;;;;5030593;28;20057;-79
2022/01/05 12:16:54;;;;;;;12.32;4.63;;;;;;;;;;5030035;28;20793;-79
2022/01/05 12:19:20;;;;;;;9.02;4.78;;;;;;;;;;5025038;28;20111;-79
2022/01/05 12:21:48;;;;;;;9.05;4.50;;;;;;;;;;5034208;28;20549;-79
2022/01/05 12:27:32;;;;;;;13.27;6.00;;;;;;;;;;4970741;28;20065;-79
2022/01/05 12:29:58;;;;;;;9.77;4.32;;;;;;;;;;5022083;28;20060;-77
2022/01/05 12:32:34;;;;;;;10.05;4.15;;;;;;;;;;5005980;28;20045;-78
2022/01/05 12:35:17;;;;;;;11.85;4.22;;;;;;;;;;5038071;28;20028;-80
2022/01/05 12:37:52;;;;;;;9.57;4.20;;;;;;;;;;5010453;28;20041;-77
2022/01/05 12:40:36;;;;;;;8.15;3.90;;;;;;;;;;5020313;28;20492;-78
2022/01/05 12:43:09;;;;;;;10.57;5.72;;;;;;;;;;5025145;28;20075;-76
2022/01/05 12:45:44;;;;;;;6.45;4.78;;;;;;;;;;5023649;28;20017;-75
2022/01/05 12:48:29;;;;;;;7.05;3.70;;;;;;;;;;5028312;28;20055;-82
2022/01/05 12:50:55;;;;;;;8.23;3.83;;;;;;;;;;5026781;28;20029;-71
2022/01/05 12:53:38;;;;;;;9.60;3.83;;;;;;;;;;5039579;28;20127;-72
2022/01/05 12:56:04;;;;;;;6.60;3.90;;;;;;;;;;5039169;28;20120;-72
2022/01/05 12:58:34;;;;;;;7.43;3.80;;;;;;;;;;5035906;28;20017;-73
2022/01/05 13:01:00;;;;;;;9.05;4.13;;;;;;;;;;5026922;28;20430;-73
2022/01/05 13:03:33;;;;;;;15.77;3.53;;;;;;;;;;5048126;28;20063;-73
2022/01/05 13:06:18;;;;;;;8.85;3.72;;;;;;;;;;5044426;28;20609;-73
2022/01/05 13:08:52;;;;;;;9.38;4.78;;;;;;;;;;5021283;28;20434;-73
2022/01/05 13:11:33;;;;;;;6.68;3.30;;;;;;;;;;5022336;28;20041;-73
2022/01/05 13:14:18;;;;;;;8.07;3.08;;;;;;;;;;5040569;28;20044;-72
2022/01/05 13:16:49;;;;;;;5.70;3.45;;;;;;;;;;5039544;28;20021;-73
2022/01/05 13:19:30;;;;;;;5.47;3.00;;;;;;;;;;5048900;28;20025;-72
2022/01/05 13:21:58;;;;;;;13.50;4.20;;;;;;;;;;5041821;28;20056;-73
2022/01/05 13:24:40;;;;;;;15.65;3.90;;;;;;;;;;5026522;28;20325;-73
2022/01/05 13:27:07;;;;;;;7.00;3.40;;;;;;;;;;5024010;28;20635;-73
2022/01/05 13:29:34;;;;;;;10.65;5.70;;;;;;;;;;5029302;28;20039;-73
2022/01/05 13:32:05;;;;;;;10.68;6.10;;;;;;;;;;5052169;28;20036;-73
2022/01/05 13:34:34;;;;;;;7.75;4.28;;;;;;;;;;5056588;28;20064;-72
2022/01/05 13:37:01;;;;;;;9.48;3.67;;;;;;;;;;5053961;28;20037;-73
2022/01/05 13:39:53;;;;;;;8.60;3.10;;;;;;;;;;5025524;28;20056;-73
2022/01/05 13:42:29;;;;;;;8.32;3.47;;;;;;;;;;5029446;28;20030;-72
2022/01/05 13:45:00;;;;;;;5.88;2.83;;;;;;;;;;5031595;28;20108;-73
2022/01/05 13:47:26;;;;;;;6.00;3.55;;;;;;;;;;5039815;28;20048;-72
2022/01/05 13:50:11;;;;;;;6.13;2.90;;;;;;;;;;5035545;28;20124;-73
2022/01/05 13:52:38;;;;;;;6.50;2.50;;;;;;;;;;5034035;28;20926;-73
2022/01/05 13:55:04;;;;;;;6.68;2.85;;;;;;;;;;5041945;28;20094;-73
2022/01/05 13:57:32;;;;;;;6.75;3.10;;;;;;;;;;5046470;28;20052;-73
2022/01/05 13:59:59;;;;;;;7.45;3.72;;;;;;;;;;5029030;28;20448;-74
2022/01/05 14:02:26;;;;;;;8.10;3.25;;;;;;;;;;5027238;28;20048;-75
2022/01/05 14:04:54;;;;;;;8.38;4.07;;;;;;;;;;5036363;28;20036;-75
2022/01/05 14:07:21;;;;;;;14.77;6.63;;;;;;;;;;5035019;28;20025;-74
2022/01/05 14:10:05;;;;;;;14.90;7.10;;;;;;;;;;5028792;28;20091;-74
2022/01/05 14:12:31;;;;;;;9.07;3.92;;;;;;;;;;5026247;28;20049;-74
2022/01/05 14:14:58;;;;;;;9.45;2.90;;;;;;;;;;5035872;28;20040;-76
2022/01/05 14:17:25;;;;;;;45.17;20.05;;;;;;;;;;5024817;28;21048;-75
2022/01/05 14:19:51;;;;;;;14.52;5.72;;;;;;;;;;5029507;28;20032;-74
2022/01/05 14:22:19;;;;;;;7.68;3.30;;;;;;;;;;5027154;28;20041;-73
2022/01/05 14:24:46;;;;;;;6.72;2.55;;;;;;;;;;5031033;28;20036;-74
2022/01/05 14:27:18;;;;;;;7.30;2.30;;;;;;;;;;5037531;28;20032;-74
2022/01/05 14:29:45;;;;;;;6.93;2.22;;;;;;;;;;5026062;28;20037;-74
2022/01/05 14:32:14;;;;;;;5.72;2.60;;;;;;;;;;5023011;28;20052;-74
2022/01/05 14:34:50;;;;;;;4.03;2.85;;;;;;;;;;5027606;28;20041;-75
2022/01/05 14:37:16;;;;;;;8.77;2.33;;;;;;;;;;5028926;28;20025;-75
2022/01/05 14:39:45;;;;;;;7.80;2.90;;;;;;;;;;5039425;28;20354;-74
2022/01/05 14:42:13;;;;;;;6.18;2.53;;;;;;;;;;5034065;28;20041;-74
2022/01/05 14:44:40;;;;;;;44.25;26.13;;;;;;;;;;5034793;28;20130;-75
2022/01/05 14:47:07;;;;;;;19.60;10.63;;;;;;;;;;5027715;28;20029;-74
2022/01/05 14:49:35;;;;;;;12.10;4.00;;;;;;;;;;5035680;28;20524;-75
2022/01/05 14:52:03;;;;;;;6.57;2.60;;;;;;;;;;5033309;28;20050;-74
2022/01/05 14:54:34;;;;;;;5.97;2.83;;;;;;;;;;5033309;28;20115;-75
2022/01/05 14:57:01;;;;;;;15.93;9.07;;;;;;;;;;5029636;28;20040;-74
2022/01/05 14:59:27;;;;;;;10.38;7.20;;;;;;;;;;5031477;28;20033;-75
2022/01/05 15:01:53;;;;;;;8.02;3.13;;;;;;;;;;5036855;28;20124;-74
2022/01/05 15:04:20;;;;;;;10.23;6.10;;;;;;;;;;5035508;28;20033;-74
2022/01/05 15:06:46;;;;;;;28.80;19.27;;;;;;;;;;5034536;28;20104;-74